Time;durP1;ratioP1;P1;durP2;ratioP2;P2;SDS_P1;SDS_P2;PMS_P1;PMS_P2;Temp;Humidity;BMP_temperature;BMP_pressure;BME280_temperature;BME280_humidity;BME280_pressure;Samples;Min_cycle;Max_cycle;Signal;HPM_P1;HPM_P2
2022/08/17 00:02:25;;;;;;;2.38;0.70;;;;;;;;;;21001912;28;20541;-55
2022/08/17 00:12:27;;;;;;;2.25;0.80;;;;;;;;;;21002708;28;20399;-56
2022/08/17 00:22:29;;;;;;;3.00;0.70;;;;;;;;;;21000650;28;20053;-57
2022/08/17 00:32:51;;;;;;;1.57;0.63;;;;;;;;;;21000075;28;20045;-56
2022/08/17 00:42:53;;;;;;;1.90;0.90;;;;;;;;;;20999319;28;20523;-56
2022/08/17 00:52:57;;;;;;;1.60;0.57;;;;;;;;;;20998522;28;20143;-57
2022/08/17 01:03:01;;;;;;;4.05;0.88;;;;;;;;;;20998290;28;20052;-56
2022/08/17 01:13:04;;;;;;;1.42;0.68;;;;;;;;;;20997316;28;20123;-57
2022/08/17 01:23:07;;;;;;;2.22;0.85;;;;;;;;;;20997469;28;20101;-57
2022/08/17 01:33:10;;;;;;;1.63;0.65;;;;;;;;;;20995372;28;20045;-56
2022/08/17 01:43:20;;;;;;;1.77;0.73;;;;;;;;;;20995839;28;20126;-55
2022/08/17 01:53:26;;;;;;;1.55;0.63;;;;;;;;;;20995733;28;20450;-55
2022/08/17 02:03:30;;;;;;;1.55;0.70;;;;;;;;;;20995407;28;20182;-57
2022/08/17 02:13:33;;;;;;;2.95;0.60;;;;;;;;;;20994669;28;20053;-56
2022/08/17 02:23:39;;;;;;;1.65;0.65;;;;;;;;;;20993706;28;20313;-58
2022/08/17 02:33:43;;;;;;;3.03;0.98;;;;;;;;;;20993589;28;20060;-54
2022/08/17 02:43:46;;;;;;;1.98;0.70;;;;;;;;;;21002654;28;20056;-57
2022/08/17 02:53:56;;;;;;;2.53;0.70;;;;;;;;;;21007859;28;20044;-55
2022/08/17 03:03:58;;;;;;;;;;;;;;;;;;21007261;28;20052;-55
2022/08/17 03:14:00;;;;;;;1.73;0.90;;;;;;;;;;21005910;28;19927;-57
2022/08/17 03:24:03;;;;;;;2.42;1.00;;;;;;;;;;21004794;28;20049;-55
2022/08/17 03:34:06;;;;;;;3.07;1.20;;;;;;;;;;21004576;28;20044;-55
2022/08/17 03:44:08;;;;;;;2.30;0.93;;;;;;;;;;21003839;28;20109;-55
2022/08/17 04:04:31;;;;;;;1.92;1.30;;;;;;;;;;21001979;28;20059;-55
2022/08/17 04:14:36;;;;;;;1.80;0.83;;;;;;;;;;21001394;28;20048;-55
2022/08/17 04:24:39;;;;;;;3.45;1.10;;;;;;;;;;20999976;28;20051;-55
2022/08/17 04:34:42;;;;;;;3.47;1.07;;;;;;;;;;21000629;28;20044;-54
2022/08/17 04:44:44;;;;;;;;;;;;;;;;;;20999666;28;20064;-55
2022/08/17 04:54:46;;;;;;;5.40;1.05;;;;;;;;;;20999172;28;20010;-56
2022/08/17 05:04:48;;;;;;;6.40;1.30;;;;;;;;;;20997035;28;20052;-55
2022/08/17 05:14:50;;;;;;;4.45;1.10;;;;;;;;;;20996170;28;20127;-55
2022/08/17 05:24:53;;;;;;;6.73;1.40;;;;;;;;;;20995663;28;20094;-55
2022/08/17 05:34:58;;;;;;;3.47;1.10;;;;;;;;;;20995735;28;20519;-55
2022/08/17 05:45:00;;;;;;;2.92;0.80;;;;;;;;;;20994515;28;20060;-55
2022/08/17 05:55:25;;;;;;;3.23;1.00;;;;;;;;;;20995010;28;20052;-55
2022/08/17 06:05:46;;;;;;;1.52;0.70;;;;;;;;;;20993169;28;20088;-55
2022/08/17 06:15:51;;;;;;;2.60;0.80;;;;;;;;;;21000373;28;20510;-55
2022/08/17 06:25:56;;;;;;;2.85;1.10;;;;;;;;;;21009204;28;20473;-56
2022/08/17 06:36:02;;;;;;;3.13;1.02;;;;;;;;;;21009812;28;20536;-54
2022/08/17 06:46:10;;;;;;;4.43;0.82;;;;;;;;;;21007007;28;20056;-56
2022/08/17 06:56:13;;;;;;;2.67;0.70;;;;;;;;;;21007376;28;20061;-56
2022/08/17 07:06:18;;;;;;;3.17;0.80;;;;;;;;;;21006721;28;20055;-56
2022/08/17 07:16:24;;;;;;;2.15;0.70;;;;;;;;;;21005710;28;20098;-54
2022/08/17 07:26:27;;;;;;;2.83;0.80;;;;;;;;;;21004119;28;20091;-56
2022/08/17 07:36:32;;;;;;;2.67;0.80;;;;;;;;;;21003816;28;20404;-56
2022/08/17 07:57:23;;;;;;;5.67;0.63;;;;;;;;;;21001714;28;20393;-55
2022/08/17 08:07:28;;;;;;;1.38;0.70;;;;;;;;;;20997838;28;20133;-55
2022/08/17 08:17:34;;;;;;;2.75;0.90;;;;;;;;;;21000110;28;20481;-56
2022/08/17 08:27:44;;;;;;;4.15;0.95;;;;;;;;;;21000869;28;20143;-56
2022/08/17 08:37:56;;;;;;;2.97;0.80;;;;;;;;;;21000803;28;20083;-54
2022/08/17 08:48:13;;;;;;;5.80;0.93;;;;;;;;;;20998903;28;20084;-56
2022/08/17 08:58:34;;;;;;;3.97;1.20;;;;;;;;;;20997697;28;20048;-56
2022/08/17 09:08:51;;;;;;;4.28;1.05;;;;;;;;;;20997400;28;20087;-57
2022/08/17 09:18:55;;;;;;;1.92;0.80;;;;;;;;;;20997071;28;20087;-56
2022/08/17 09:29:01;;;;;;;4.30;1.10;;;;;;;;;;20997314;28;20055;-56
2022/08/17 09:39:06;;;;;;;2.78;1.15;;;;;;;;;;20997009;28;20139;-56
2022/08/17 09:49:17;;;;;;;1.77;0.85;;;;;;;;;;20995577;28;20504;-56
2022/08/17 09:59:22;;;;;;;3.25;1.20;;;;;;;;;;20996182;28;20499;-55
2022/08/17 10:09:48;;;;;;;1.80;0.70;;;;;;;;;;20995368;28;20049;-57
2022/08/17 10:19:55;;;;;;;4.47;1.23;;;;;;;;;;20901372;28;20099;-56
2022/08/17 10:30:02;;;;;;;3.47;1.00;;;;;;;;;;20902353;28;20053;-56
2022/08/17 10:40:16;;;;;;;4.43;1.10;;;;;;;;;;20900847;28;20064;-55
2022/08/17 10:50:39;;;;;;;2.33;1.23;;;;;;;;;;20903515;28;20049;-58
2022/08/17 11:00:41;;;;;;;5.30;1.30;;;;;;;;;;20912213;28;20049;-56
2022/08/17 11:10:46;;;;;;;5.55;1.90;;;;;;;;;;20924858;28;20045;-56
2022/08/17 11:20:49;;;;;;;3.00;1.67;;;;;;;;;;20923259;28;20061;-54
2022/08/17 11:30:53;;;;;;;3.67;1.40;;;;;;;;;;20922046;28;20504;-55
2022/08/17 11:40:55;;;;;;;6.45;2.00;;;;;;;;;;20919984;28;20060;-55
2022/08/17 12:01:27;;;;;;;3.33;1.42;;;;;;;;;;21002298;28;20057;-54
2022/08/17 12:11:48;;;;;;;3.17;1.88;;;;;;;;;;21001835;28;20067;-57
2022/08/17 12:21:56;;;;;;;4.07;1.70;;;;;;;;;;21000657;28;20464;-58
2022/08/17 12:32:00;;;;;;;2.22;1.35;;;;;;;;;;20999922;28;20044;-59
2022/08/17 12:42:03;;;;;;;2.45;1.38;;;;;;;;;;21002248;28;20059;-58
2022/08/17 12:52:14;;;;;;;3.72;1.85;;;;;;;;;;21000690;28;20079;-58
2022/08/17 13:02:19;;;;;;;3.47;1.70;;;;;;;;;;20999607;28;20394;-56
2022/08/17 13:12:28;;;;;;;2.78;1.33;;;;;;;;;;20996867;28;20050;-57
2022/08/17 13:22:33;;;;;;;2.65;1.30;;;;;;;;;;20996604;28;20049;-57
2022/08/17 13:32:37;;;;;;;3.97;1.70;;;;;;;;;;20996604;28;20055;-60
2022/08/17 13:42:39;;;;;;;4.82;2.00;;;;;;;;;;20996303;28;20052;-56
2022/08/17 13:52:43;;;;;;;4.68;1.50;;;;;;;;;;20996070;28;20049;-56
2022/08/17 14:02:45;;;;;;;3.83;1.00;;;;;;;;;;20995676;28;20045;-58
2022/08/17 14:12:49;;;;;;;4.10;1.55;;;;;;;;;;20996921;28;20455;-57
2022/08/17 14:22:52;;;;;;;2.83;1.30;;;;;;;;;;20994602;28;20414;-55
2022/08/17 14:32:55;;;;;;;4.85;1.27;;;;;;;;;;20995027;28;20121;-58
2022/08/17 14:42:57;;;;;;;3.10;1.30;;;;;;;;;;21009272;28;20052;-57
2022/08/17 14:52:59;;;;;;;11.20;8.57;;;;;;;;;;21008292;28;20056;-59
2022/08/17 15:03:01;;;;;;;13.07;1.48;;;;;;;;;;21008700;28;20061;-57
2022/08/17 15:13:03;;;;;;;8.38;1.30;;;;;;;;;;21006119;28;20080;-56
2022/08/17 15:23:08;;;;;;;4.45;0.80;;;;;;;;;;21006127;28;20044;-58
2022/08/17 15:33:18;;;;;;;1.65;0.70;;;;;;;;;;21006540;28;20048;-57
2022/08/17 15:43:22;;;;;;;3.80;0.80;;;;;;;;;;21004165;28;20056;-56
2022/08/17 15:53:24;;;;;;;3.25;1.02;;;;;;;;;;21003252;28;20048;-57
2022/08/17 16:03:27;;;;;;;5.13;0.98;;;;;;;;;;21002778;28;20101;-56
2022/08/17 16:13:29;;;;;;;3.92;0.73;;;;;;;;;;21002533;28;20049;-57
2022/08/17 16:23:31;;;;;;;3.85;1.35;;;;;;;;;;21002020;28;20048;-59
2022/08/17 16:33:33;;;;;;;;;;;;;;;;;;21000984;28;20501;-56
2022/08/17 16:43:35;;;;;;;3.40;1.20;;;;;;;;;;20999615;28;19921;-56
2022/08/17 16:53:38;;;;;;;2.83;1.48;;;;;;;;;;20999456;28;20045;-57
2022/08/17 17:03:42;;;;;;;0.88;0.50;;;;;;;;;;20996732;28;20139;-57
2022/08/17 17:13:53;;;;;;;2.03;0.90;;;;;;;;;;20998672;28;20048;-56
2022/08/17 17:23:58;;;;;;;2.60;0.80;;;;;;;;;;20997175;28;20052;-55
2022/08/17 17:34:02;;;;;;;3.60;0.90;;;;;;;;;;20996995;28;20447;-57
2022/08/17 17:44:07;;;;;;;1.27;0.68;;;;;;;;;;20996857;28;20518;-59
2022/08/17 17:54:09;;;;;;;3.25;1.20;;;;;;;;;;20996844;28;20056;-57
2022/08/17 18:04:19;;;;;;;1.33;0.50;;;;;;;;;;20994429;28;20049;-59
2022/08/17 18:14:29;;;;;;;1.42;0.50;;;;;;;;;;21006616;28;20476;-58
2022/08/17 18:24:33;;;;;;;4.03;0.75;;;;;;;;;;21011658;28;20132;-56
2022/08/17 18:34:35;;;;;;;1.70;0.70;;;;;;;;;;21011083;28;20055;-57
2022/08/17 18:44:37;;;;;;;1.52;0.80;;;;;;;;;;21009741;28;20055;-55
2022/08/17 18:54:39;;;;;;;1.33;0.68;;;;;;;;;;21009517;28;20076;-57
2022/08/17 19:04:54;;;;;;;5.03;0.73;;;;;;;;;;21007907;28;20048;-56
2022/08/17 19:14:57;;;;;;;1.23;0.75;;;;;;;;;;21006869;28;20096;-55
2022/08/17 19:25:06;;;;;;;2.25;0.85;;;;;;;;;;21006205;28;20117;-60
2022/08/17 19:35:08;;;;;;;1.85;0.70;;;;;;;;;;21004290;28;20623;-57
2022/08/17 19:45:19;;;;;;;1.95;0.90;;;;;;;;;;21003828;28;20053;-58
2022/08/17 19:55:29;;;;;;;2.97;1.20;;;;;;;;;;21005783;28;20139;-57
2022/08/17 20:05:32;;;;;;;2.40;0.77;;;;;;;;;;21003489;28;20136;-57
2022/08/17 20:15:35;;;;;;;2.67;1.50;;;;;;;;;;21002801;28;20052;-56
2022/08/17 20:25:42;;;;;;;1.33;0.75;;;;;;;;;;21001647;28;20048;-57
2022/08/17 20:36:00;;;;;;;3.17;1.25;;;;;;;;;;21000676;28;20071;-58
2022/08/17 20:46:01;;;;;;;1.30;0.80;;;;;;;;;;20999930;28;20416;-59
2022/08/17 20:56:04;;;;;;;3.50;1.23;;;;;;;;;;20999616;28;20049;-58
2022/08/17 21:06:09;;;;;;;2.00;1.15;;;;;;;;;;20998804;28;20044;-60
2022/08/17 21:16:30;;;;;;;1.95;0.80;;;;;;;;;;20997888;28;20076;-59
2022/08/17 21:26:53;;;;;;;2.78;0.93;;;;;;;;;;20996974;28;20048;-57
2022/08/17 21:36:55;;;;;;;;;;;;;;;;;;20996893;28;20075;-57
2022/08/17 21:47:11;;;;;;;2.27;0.80;;;;;;;;;;20994759;28;19928;-56
2022/08/17 21:57:19;;;;;;;2.45;0.70;;;;;;;;;;20995382;28;20055;-59
2022/08/17 22:07:33;;;;;;;1.08;0.50;;;;;;;;;;20994969;28;20056;-56
2022/08/17 22:17:39;;;;;;;1.42;0.50;;;;;;;;;;20995283;28;20510;-57
2022/08/17 22:27:58;;;;;;;3.03;0.63;;;;;;;;;;20994035;28;20055;-59
2022/08/17 22:38:19;;;;;;;2.15;0.50;;;;;;;;;;20994286;28;20447;-56
2022/08/17 22:48:22;;;;;;;1.67;0.40;;;;;;;;;;20992974;28;20055;-58
2022/08/17 23:08:53;;;;;;;0.77;0.50;;;;;;;;;;21008710;28;20088;-58
2022/08/17 23:18:55;;;;;;;3.03;0.50;;;;;;;;;;21006608;28;20044;-58
2022/08/17 23:28:58;;;;;;;0.67;0.50;;;;;;;;;;21005899;28;20083;-55
2022/08/17 23:39:00;;;;;;;1.23;0.60;;;;;;;;;;21005553;28;20054;-56
2022/08/17 23:49:02;;;;;;;1.27;0.88;;;;;;;;;;21004418;28;20056;-56
2022/08/17 23:59:04;;;;;;;2.30;0.50;;;;;;;;;;21004409;28;20048;-56
